sensor_id;sensor_type;location;lat;lon;timestamp;pressure;altitude;pressure_sealevel;temperature;humidity
21520;BME280;10921;53.614;9.882;2023-12-20T00:01:59;100762.28;;;7.33;100.00
21520;BME280;10921;53.614;9.882;2023-12-20T00:04:26;100752.63;;;7.21;100.00
21520;BME280;10921;53.614;9.882;2023-12-20T00:06:52;100757.09;;;7.20;100.00
21520;BME280;10921;53.614;9.882;2023-12-20T00:09:19;100720.56;;;7.01;100.00
21520;BME280;10921;53.614;9.882;2023-12-20T00:11:46;100749.25;;;7.19;100.00
21520;BME280;10921;53.614;9.882;2023-12-20T00:14:12;100748.41;;;7.18;100.00
21520;BME280;10921;53.614;9.882;2023-12-20T00:16:39;100753.13;;;7.15;100.00
21520;BME280;10921;53.614;9.882;2023-12-20T00:19:06;100744.78;;;7.08;100.00
21520;BME280;10921;53.614;9.882;2023-12-20T00:21:32;100743.47;;;7.14;100.00
21520;BME280;10921;53.614;9.882;2023-12-20T00:23:59;100730.31;;;7.12;100.00
21520;BME280;10921;53.614;9.882;2023-12-20T00:26:26;100721.63;;;7.10;100.00
21520;BME280;10921;53.614;9.882;2023-12-20T00:28:54;100728.00;;;7.19;100.00
21520;BME280;10921;53.614;9.882;2023-12-20T00:31:21;100728.75;;;7.21;100.00
21520;BME280;10921;53.614;9.882;2023-12-20T00:33:47;100729.22;;;7.26;100.00
21520;BME280;10921;53.614;9.882;2023-12-20T00:36:14;100715.09;;;7.25;100.00
21520;BME280;10921;53.614;9.882;2023-12-20T00:38:40;100718.47;;;7.27;100.00
21520;BME280;10921;53.614;9.882;2023-12-20T00:41:07;100732.47;;;7.29;100.00
21520;BME280;10921;53.614;9.882;2023-12-20T00:43:33;100718.81;;;7.34;100.00
21520;BME280;10921;53.614;9.882;2023-12-20T00:46:00;100703.72;;;7.34;100.00
21520;BME280;10921;53.614;9.882;2023-12-20T00:48:26;100714.47;;;7.44;100.00
21520;BME280;10921;53.614;9.882;2023-12-20T00:50:53;100706.25;;;7.47;100.00
21520;BME280;10921;53.614;9.882;2023-12-20T00:53:20;100696.59;;;7.46;100.00
21520;BME280;10921;53.614;9.882;2023-12-20T00:55:46;100706.59;;;7.54;100.00
21520;BME280;10921;53.614;9.882;2023-12-20T00:58:13;100700.44;;;7.53;100.00
21520;BME280;10921;53.614;9.882;2023-12-20T01:00:42;100697.66;;;7.55;100.00
21520;BME280;10921;53.614;9.882;2023-12-20T01:03:10;100692.47;;;7.53;100.00
21520;BME280;10921;53.614;9.882;2023-12-20T01:05:36;100655.38;;;7.31;100.00
21520;BME280;10921;53.614;9.882;2023-12-20T01:08:03;100691.75;;;7.51;100.00
21520;BME280;10921;53.614;9.882;2023-12-20T01:10:30;100663.72;;;7.26;100.00
21520;BME280;10921;53.614;9.882;2023-12-20T01:12:56;100700.47;;;7.42;100.00
21520;BME280;10921;53.614;9.882;2023-12-20T01:15:23;100699.38;;;7.45;100.00
21520;BME280;10921;53.614;9.882;2023-12-20T01:17:49;100698.91;;;7.39;100.00
21520;BME280;10921;53.614;9.882;2023-12-20T01:20:16;100686.13;;;7.33;100.00
21520;BME280;10921;53.614;9.882;2023-12-20T01:22:43;100685.56;;;7.30;100.00
21520;BME280;10921;53.614;9.882;2023-12-20T01:25:12;100692.78;;;7.28;100.00
21520;BME280;10921;53.614;9.882;2023-12-20T01:27:39;100633.50;;;6.95;100.00
21520;BME280;10921;53.614;9.882;2023-12-20T01:30:06;100675.53;;;7.22;100.00
21520;BME280;10921;53.614;9.882;2023-12-20T01:32:32;100682.06;;;7.18;100.00
21520;BME280;10921;53.614;9.882;2023-12-20T01:34:59;100639.28;;;6.89;100.00
21520;BME280;10921;53.614;9.882;2023-12-20T01:37:28;100655.09;;;6.91;100.00
21520;BME280;10921;53.614;9.882;2023-12-20T01:39:55;100680.75;;;7.13;100.00
21520;BME280;10921;53.614;9.882;2023-12-20T01:42:22;100674.84;;;7.09;100.00
21520;BME280;10921;53.614;9.882;2023-12-20T01:44:49;100668.44;;;7.12;100.00
21520;BME280;10921;53.614;9.882;2023-12-20T01:47:16;100676.53;;;7.10;100.00
21520;BME280;10921;53.614;9.882;2023-12-20T01:49:43;100677.25;;;7.12;100.00
21520;BME280;10921;53.614;9.882;2023-12-20T01:52:10;100653.88;;;6.95;100.00
21520;BME280;10921;53.614;9.882;2023-12-20T01:54:38;100677.97;;;7.14;100.00
21520;BME280;10921;53.614;9.882;2023-12-20T01:57:06;100654.47;;;7.10;100.00
21520;BME280;10921;53.614;9.882;2023-12-20T01:59:34;100664.72;;;7.14;100.00
21520;BME280;10921;53.614;9.882;2023-12-20T02:02:03;100662.50;;;7.19;100.00
21520;BME280;10921;53.614;9.882;2023-12-20T02:04:29;100658.06;;;7.20;100.00
21520;BME280;10921;53.614;9.882;2023-12-20T02:06:57;100654.56;;;7.19;100.00
21520;BME280;10921;53.614;9.882;2023-12-20T02:09:25;100652.75;;;7.20;100.00
21520;BME280;10921;53.614;9.882;2023-12-20T02:11:54;100637.47;;;7.12;100.00
21520;BME280;10921;53.614;9.882;2023-12-20T02:14:20;100649.25;;;7.19;100.00
21520;BME280;10921;53.614;9.882;2023-12-20T02:16:47;100643.25;;;7.17;100.00
21520;BME280;10921;53.614;9.882;2023-12-20T02:19:14;100596.16;;;6.87;100.00
21520;BME280;10921;53.614;9.882;2023-12-20T02:21:42;100638.06;;;7.16;100.00
21520;BME280;10921;53.614;9.882;2023-12-20T02:24:08;100634.69;;;7.14;100.00
21520;BME280;10921;53.614;9.882;2023-12-20T02:26:35;100639.59;;;7.18;100.00
21520;BME280;10921;53.614;9.882;2023-12-20T02:29:02;100629.25;;;7.15;100.00
21520;BME280;10921;53.614;9.882;2023-12-20T02:31:28;100635.84;;;7.21;100.00
21520;BME280;10921;53.614;9.882;2023-12-20T02:33:55;100645.13;;;7.26;100.00
21520;BME280;10921;53.614;9.882;2023-12-20T02:36:22;100592.47;;;7.11;100.00
21520;BME280;10921;53.614;9.882;2023-12-20T02:38:48;100589.09;;;7.09;100.00
21520;BME280;10921;53.614;9.882;2023-12-20T02:41:16;100625.34;;;7.30;100.00
21520;BME280;10921;53.614;9.882;2023-12-20T02:43:45;100616.31;;;7.33;100.00
21520;BME280;10921;53.614;9.882;2023-12-20T02:46:11;100619.75;;;7.45;100.00
21520;BME280;10921;53.614;9.882;2023-12-20T02:48:38;100636.13;;;7.50;100.00
21520;BME280;10921;53.614;9.882;2023-12-20T02:51:05;100626.09;;;7.53;100.00
21520;BME280;10921;53.614;9.882;2023-12-20T02:53:31;100612.69;;;7.55;100.00
21520;BME280;10921;53.614;9.882;2023-12-20T02:55:58;100566.50;;;7.25;100.00
21520;BME280;10921;53.614;9.882;2023-12-20T02:58:24;100596.25;;;7.61;100.00
21520;BME280;10921;53.614;9.882;2023-12-20T03:00:51;100606.03;;;7.60;100.00
21520;BME280;10921;53.614;9.882;2023-12-20T03:03:18;100604.66;;;7.66;100.00
21520;BME280;10921;53.614;9.882;2023-12-20T03:05:45;100590.22;;;7.59;100.00
21520;BME280;10921;53.614;9.882;2023-12-20T03:08:12;100578.88;;;7.57;100.00
21520;BME280;10921;53.614;9.882;2023-12-20T03:10:39;100540.66;;;7.27;100.00
21520;BME280;10921;53.614;9.882;2023-12-20T03:13:05;100586.34;;;7.63;100.00
21520;BME280;10921;53.614;9.882;2023-12-20T03:15:32;100590.34;;;7.57;100.00
21520;BME280;10921;53.614;9.882;2023-12-20T03:17:58;100594.69;;;7.58;100.00
21520;BME280;10921;53.614;9.882;2023-12-20T03:20:25;100594.56;;;7.60;100.00
21520;BME280;10921;53.614;9.882;2023-12-20T03:22:52;100585.28;;;7.54;100.00
21520;BME280;10921;53.614;9.882;2023-12-20T03:25:19;100581.81;;;7.54;100.00
21520;BME280;10921;53.614;9.882;2023-12-20T03:27:45;100563.16;;;7.44;100.00
21520;BME280;10921;53.614;9.882;2023-12-20T03:30:12;100568.78;;;7.51;100.00
21520;BME280;10921;53.614;9.882;2023-12-20T03:32:39;100576.09;;;7.58;100.00
21520;BME280;10921;53.614;9.882;2023-12-20T03:35:06;100522.94;;;7.28;100.00
21520;BME280;10921;53.614;9.882;2023-12-20T03:37:32;100576.25;;;7.57;100.00
21520;BME280;10921;53.614;9.882;2023-12-20T03:39:59;100559.00;;;7.51;100.00
21520;BME280;10921;53.614;9.882;2023-12-20T03:42:25;100576.09;;;7.58;100.00
21520;BME280;10921;53.614;9.882;2023-12-20T03:44:52;100551.56;;;7.45;100.00
21520;BME280;10921;53.614;9.882;2023-12-20T03:47:18;100566.59;;;7.56;100.00
21520;BME280;10921;53.614;9.882;2023-12-20T03:49:45;100567.31;;;7.58;100.00
21520;BME280;10921;53.614;9.882;2023-12-20T03:52:11;100548.25;;;7.53;100.00
21520;BME280;10921;53.614;9.882;2023-12-20T03:54:38;100541.38;;;7.50;100.00
21520;BME280;10921;53.614;9.882;2023-12-20T03:57:08;100560.44;;;7.55;100.00
21520;BME280;10921;53.614;9.882;2023-12-20T03:59:35;100563.94;;;7.56;100.00
21520;BME280;10921;53.614;9.882;2023-12-20T04:02:03;100555.97;;;7.56;100.00
21520;BME280;10921;53.614;9.882;2023-12-20T04:04:30;100548.59;;;7.59;100.00
21520;BME280;10921;53.614;9.882;2023-12-20T04:06:56;100552.94;;;7.60;100.00
21520;BME280;10921;53.614;9.882;2023-12-20T04:09:23;100517.06;;;7.45;100.00
21520;BME280;10921;53.614;9.882;2023-12-20T04:11:49;100544.84;;;7.62;100.00
21520;BME280;10921;53.614;9.882;2023-12-20T04:14:16;100529.16;;;7.59;100.00
21520;BME280;10921;53.614;9.882;2023-12-20T04:16:43;100537.00;;;7.60;100.00
21520;BME280;10921;53.614;9.882;2023-12-20T04:19:13;100510.91;;;7.45;100.00
21520;BME280;10921;53.614;9.882;2023-12-20T04:21:39;100516.72;;;7.59;100.00
21520;BME280;10921;53.614;9.882;2023-12-20T04:24:06;100513.94;;;7.61;100.00
21520;BME280;10921;53.614;9.882;2023-12-20T04:26:32;100503.38;;;7.50;100.00
21520;BME280;10921;53.614;9.882;2023-12-20T04:28:59;100496.84;;;7.54;100.00
21520;BME280;10921;53.614;9.882;2023-12-20T04:31:25;100507.34;;;7.55;100.00
21520;BME280;10921;53.614;9.882;2023-12-20T04:33:52;100500.34;;;7.54;100.00
21520;BME280;10921;53.614;9.882;2023-12-20T04:36:19;100501.88;;;7.57;100.00
21520;BME280;10921;53.614;9.882;2023-12-20T04:38:45;100477.09;;;7.47;100.00
21520;BME280;10921;53.614;9.882;2023-12-20T04:41:12;100497.16;;;7.60;100.00
21520;BME280;10921;53.614;9.882;2023-12-20T04:43:42;100499.81;;;7.60;100.00
21520;BME280;10921;53.614;9.882;2023-12-20T04:46:08;100495.34;;;7.61;100.00
21520;BME280;10921;53.614;9.882;2023-12-20T04:48:35;100493.09;;;7.56;100.00
21520;BME280;10921;53.614;9.882;2023-12-20T04:51:02;100463.63;;;7.38;100.00
21520;BME280;10921;53.614;9.882;2023-12-20T04:53:28;100489.34;;;7.59;100.00
21520;BME280;10921;53.614;9.882;2023-12-20T04:55:55;100486.69;;;7.59;100.00
21520;BME280;10921;53.614;9.882;2023-12-20T04:58:21;100482.78;;;7.63;100.00
21520;BME280;10921;53.614;9.882;2023-12-20T05:00:48;100481.66;;;7.65;100.00
21520;BME280;10921;53.614;9.882;2023-12-20T05:03:15;100476.78;;;7.61;100.00
21520;BME280;10921;53.614;9.882;2023-12-20T05:05:41;100473.69;;;7.65;100.00
21520;BME280;10921;53.614;9.882;2023-12-20T05:08:08;100469.06;;;7.58;100.00
21520;BME280;10921;53.614;9.882;2023-12-20T05:10:34;100479.59;;;7.69;100.00
21520;BME280;10921;53.614;9.882;2023-12-20T05:13:03;100476.44;;;7.75;100.00
21520;BME280;10921;53.614;9.882;2023-12-20T05:15:29;100479.09;;;7.75;100.00
21520;BME280;10921;53.614;9.882;2023-12-20T05:17:56;100461.19;;;7.77;100.00
21520;BME280;10921;53.614;9.882;2023-12-20T05:20:23;100438.16;;;7.57;100.00
21520;BME280;10921;53.614;9.882;2023-12-20T05:22:50;100471.13;;;7.75;100.00
21520;BME280;10921;53.614;9.882;2023-12-20T05:25:18;100481.59;;;7.76;100.00
21520;BME280;10921;53.614;9.882;2023-12-20T05:27:45;100477.44;;;7.84;100.00
21520;BME280;10921;53.614;9.882;2023-12-20T05:30:12;100474.91;;;7.82;100.00
21520;BME280;10921;53.614;9.882;2023-12-20T05:32:40;100453.94;;;7.79;100.00
21520;BME280;10921;53.614;9.882;2023-12-20T05:35:07;100454.69;;;7.91;100.00
21520;BME280;10921;53.614;9.882;2023-12-20T05:37:33;100469.06;;;7.88;100.00
21520;BME280;10921;53.614;9.882;2023-12-20T05:40:00;100436.97;;;7.70;100.00
21520;BME280;10921;53.614;9.882;2023-12-20T05:42:27;100470.38;;;7.94;100.00
21520;BME280;10921;53.614;9.882;2023-12-20T05:44:53;100455.41;;;7.93;100.00
21520;BME280;10921;53.614;9.882;2023-12-20T05:47:26;100419.63;;;7.66;100.00
21520;BME280;10921;53.614;9.882;2023-12-20T05:49:52;100455.41;;;7.93;100.00
21520;BME280;10921;53.614;9.882;2023-12-20T05:52:19;100430.31;;;7.76;100.00
21520;BME280;10921;53.614;9.882;2023-12-20T05:54:46;100436.75;;;7.83;100.00
21520;BME280;10921;53.614;9.882;2023-12-20T05:57:13;100448.53;;;7.90;100.00
21520;BME280;10921;53.614;9.882;2023-12-20T05:59:39;100452.75;;;7.93;100.00
21520;BME280;10921;53.614;9.882;2023-12-20T06:02:06;100439.47;;;7.93;100.00
21520;BME280;10921;53.614;9.882;2023-12-20T06:04:33;100445.31;;;7.96;100.00
21520;BME280;10921;53.614;9.882;2023-12-20T06:06:59;100434.69;;;7.96;100.00
21520;BME280;10921;53.614;9.882;2023-12-20T06:09:29;100429.34;;;7.87;100.00
21520;BME280;10921;53.614;9.882;2023-12-20T06:11:57;100433.00;;;7.95;100.00
21520;BME280;10921;53.614;9.882;2023-12-20T06:14:24;100428.41;;;7.97;100.00
21520;BME280;10921;53.614;9.882;2023-12-20T06:16:51;100439.16;;;7.96;100.00
21520;BME280;10921;53.614;9.882;2023-12-20T06:19:17;100441.69;;;7.97;100.00
21520;BME280;10921;53.614;9.882;2023-12-20T06:21:44;100425.75;;;7.97;100.00
21520;BME280;10921;53.614;9.882;2023-12-20T06:24:11;100429.81;;;7.92;100.00
21520;BME280;10921;53.614;9.882;2023-12-20T06:26:37;100415.22;;;7.86;100.00
21520;BME280;10921;53.614;9.882;2023-12-20T06:29:07;100354.78;;;7.69;100.00
21520;BME280;10921;53.614;9.882;2023-12-20T06:31:33;100393.72;;;7.89;100.00
21520;BME280;10921;53.614;9.882;2023-12-20T06:34:00;100437.91;;;7.90;100.00
21520;BME280;10921;53.614;9.882;2023-12-20T06:36:27;100419.19;;;7.92;100.00
21520;BME280;10921;53.614;9.882;2023-12-20T06:38:54;100413.28;;;7.88;100.00
21520;BME280;10921;53.614;9.882;2023-12-20T06:41:20;100398.19;;;7.89;100.00
21520;BME280;10921;53.614;9.882;2023-12-20T06:43:47;100392.88;;;7.89;100.00
21520;BME280;10921;53.614;9.882;2023-12-20T06:46:16;100382.38;;;7.87;100.00
21520;BME280;10921;53.614;9.882;2023-12-20T06:48:43;100394.03;;;8.05;100.00
21520;BME280;10921;53.614;9.882;2023-12-20T06:51:15;100401.19;;;8.05;100.00
21520;BME280;10921;53.614;9.882;2023-12-20T06:53:42;100390.25;;;7.98;100.00
21520;BME280;10921;53.614;9.882;2023-12-20T06:56:10;100379.06;;;8.04;100.00
21520;BME280;10921;53.614;9.882;2023-12-20T06:58:39;100370.25;;;8.04;100.00
21520;BME280;10921;53.614;9.882;2023-12-20T07:01:11;100368.72;;;8.01;100.00
21520;BME280;10921;53.614;9.882;2023-12-20T07:03:38;100375.19;;;8.08;100.00
21520;BME280;10921;53.614;9.882;2023-12-20T07:06:04;100366.91;;;8.11;100.00
21520;BME280;10921;53.614;9.882;2023-12-20T07:08:31;100353.34;;;8.05;100.00
21520;BME280;10921;53.614;9.882;2023-12-20T07:10:58;100353.63;;;8.02;100.00
21520;BME280;10921;53.614;9.882;2023-12-20T07:13:24;100312.34;;;7.79;100.00
21520;BME280;10921;53.614;9.882;2023-12-20T07:15:51;100372.91;;;7.94;100.00
21520;BME280;10921;53.614;9.882;2023-12-20T07:18:17;100370.13;;;8.05;100.00
21520;BME280;10921;53.614;9.882;2023-12-20T07:20:44;100365.09;;;8.02;100.00
21520;BME280;10921;53.614;9.882;2023-12-20T07:23:11;100370.84;;;8.07;100.00
21520;BME280;10921;53.614;9.882;2023-12-20T07:25:37;100358.25;;;8.09;100.00
21520;BME280;10921;53.614;9.882;2023-12-20T07:28:04;100363.72;;;8.08;100.00
21520;BME280;10921;53.614;9.882;2023-12-20T07:30:31;100368.03;;;8.09;100.00
21520;BME280;10921;53.614;9.882;2023-12-20T07:32:58;100358.53;;;8.06;100.00
21520;BME280;10921;53.614;9.882;2023-12-20T07:35:24;100355.88;;;8.06;100.00
21520;BME280;10921;53.614;9.882;2023-12-20T07:37:51;100367.88;;;8.10;99.93
21520;BME280;10921;53.614;9.882;2023-12-20T07:40:18;100352.25;;;8.17;99.62
21520;BME280;10921;53.614;9.882;2023-12-20T07:42:45;100343.13;;;8.10;99.73
21520;BME280;10921;53.614;9.882;2023-12-20T07:45:11;100367.22;;;8.18;100.00
21520;BME280;10921;53.614;9.882;2023-12-20T07:47:39;100351.00;;;8.21;99.78
21520;BME280;10921;53.614;9.882;2023-12-20T07:50:07;100327.34;;;8.08;99.66
21520;BME280;10921;53.614;9.882;2023-12-20T07:52:34;100347.06;;;8.25;99.50
21520;BME280;10921;53.614;9.882;2023-12-20T07:55:00;100326.38;;;8.19;99.24
21520;BME280;10921;53.614;9.882;2023-12-20T07:57:31;100344.00;;;8.30;99.47
21520;BME280;10921;53.614;9.882;2023-12-20T07:59:57;100321.75;;;8.21;99.43
21520;BME280;10921;53.614;9.882;2023-12-20T08:02:24;100340.25;;;8.32;99.17
21520;BME280;10921;53.614;9.882;2023-12-20T08:04:50;100338.03;;;8.37;99.38
21520;BME280;10921;53.614;9.882;2023-12-20T08:07:17;100294.47;;;7.90;98.46
21520;BME280;10921;53.614;9.882;2023-12-20T08:09:43;100341.53;;;8.38;98.59
21520;BME280;10921;53.614;9.882;2023-12-20T08:12:10;100331.44;;;8.41;98.66
21520;BME280;10921;53.614;9.882;2023-12-20T08:14:37;100318.00;;;8.43;98.48
21520;BME280;10921;53.614;9.882;2023-12-20T08:17:04;100317.59;;;8.48;98.55
21520;BME280;10921;53.614;9.882;2023-12-20T08:19:31;100313.66;;;8.42;98.44
21520;BME280;10921;53.614;9.882;2023-12-20T08:21:57;100312.41;;;8.46;98.46
21520;BME280;10921;53.614;9.882;2023-12-20T08:24:24;100312.13;;;8.49;98.20
21520;BME280;10921;53.614;9.882;2023-12-20T08:26:50;100305.13;;;8.48;98.37
21520;BME280;10921;53.614;9.882;2023-12-20T08:29:17;100296.47;;;8.46;98.38
21520;BME280;10921;53.614;9.882;2023-12-20T08:31:43;100259.91;;;8.29;98.50
21520;BME280;10921;53.614;9.882;2023-12-20T08:34:10;100304.72;;;8.53;98.26
21520;BME280;10921;53.614;9.882;2023-12-20T08:36:40;100297.00;;;8.59;98.92
21520;BME280;10921;53.614;9.882;2023-12-20T08:39:06;100300.34;;;8.61;98.63
21520;BME280;10921;53.614;9.882;2023-12-20T08:41:35;100270.84;;;8.55;98.57
21520;BME280;10921;53.614;9.882;2023-12-20T08:44:02;100281.72;;;8.71;98.41
21520;BME280;10921;53.614;9.882;2023-12-20T08:46:29;100282.97;;;8.76;98.48
21520;BME280;10921;53.614;9.882;2023-12-20T08:48:56;100298.66;;;8.79;97.75
21520;BME280;10921;53.614;9.882;2023-12-20T08:51:23;100284.38;;;8.80;97.68
21520;BME280;10921;53.614;9.882;2023-12-20T08:53:51;100285.91;;;8.83;97.75
21520;BME280;10921;53.614;9.882;2023-12-20T08:56:18;100275.41;;;8.81;97.62
21520;BME280;10921;53.614;9.882;2023-12-20T08:58:48;100277.50;;;8.78;97.59
21520;BME280;10921;53.614;9.882;2023-12-20T09:01:14;100258.78;;;8.60;97.41
21520;BME280;10921;53.614;9.882;2023-12-20T09:03:41;100273.03;;;8.78;97.29
21520;BME280;10921;53.614;9.882;2023-12-20T09:06:08;100263.66;;;8.74;97.32
21520;BME280;10921;53.614;9.882;2023-12-20T09:08:34;100202.16;;;8.21;97.14
21520;BME280;10921;53.614;9.882;2023-12-20T09:11:01;100283.84;;;8.67;97.10
21520;BME280;10921;53.614;9.882;2023-12-20T09:13:28;100284.13;;;8.64;97.34
21520;BME280;10921;53.614;9.882;2023-12-20T09:15:56;100282.03;;;8.58;97.48
21520;BME280;10921;53.614;9.882;2023-12-20T09:18:23;100295.31;;;8.58;98.32
21520;BME280;10921;53.614;9.882;2023-12-20T09:20:50;100317.72;;;8.56;98.35
21520;BME280;10921;53.614;9.882;2023-12-20T09:23:17;100300.94;;;8.45;99.21
21520;BME280;10921;53.614;9.882;2023-12-20T09:25:44;100287.78;;;8.44;99.15
21520;BME280;10921;53.614;9.882;2023-12-20T09:28:11;100231.53;;;8.10;98.77
21520;BME280;10921;53.614;9.882;2023-12-20T09:30:37;100293.81;;;8.36;98.82
21520;BME280;10921;53.614;9.882;2023-12-20T09:33:07;100287.78;;;8.34;99.19
21520;BME280;10921;53.614;9.882;2023-12-20T09:35:34;100305.94;;;8.29;99.52
21520;BME280;10921;53.614;9.882;2023-12-20T09:38:01;100308.47;;;8.21;98.86
21520;BME280;10921;53.614;9.882;2023-12-20T09:40:27;100330.31;;;8.25;98.61
21520;BME280;10921;53.614;9.882;2023-12-20T09:43:03;100308.31;;;8.13;98.06
21520;BME280;10921;53.614;9.882;2023-12-20T09:45:31;100279.63;;;7.88;97.17
21520;BME280;10921;53.614;9.882;2023-12-20T09:47:59;100340.06;;;8.15;96.50
21520;BME280;10921;53.614;9.882;2023-12-20T09:50:26;100310.13;;;7.93;96.01
21520;BME280;10921;53.614;9.882;2023-12-20T09:52:53;100324.13;;;8.05;96.17
21520;BME280;10921;53.614;9.882;2023-12-20T09:55:21;100317.38;;;7.91;95.50
21520;BME280;10921;53.614;9.882;2023-12-20T09:57:48;100281.41;;;7.58;95.17
21520;BME280;10921;53.614;9.882;2023-12-20T10:00:16;100301.41;;;7.82;95.52
21520;BME280;10921;53.614;9.882;2023-12-20T10:02:56;100306.72;;;7.82;96.03
21520;BME280;10921;53.614;9.882;2023-12-20T10:07:54;100307.53;;;7.63;95.09
21520;BME280;10921;53.614;9.882;2023-12-20T10:10:21;100320.38;;;7.58;95.32
21520;BME280;10921;53.614;9.882;2023-12-20T10:13:07;100345.97;;;7.59;95.96
21520;BME280;10921;53.614;9.882;2023-12-20T10:15:36;100308.69;;;7.30;95.76
21520;BME280;10921;53.614;9.882;2023-12-20T10:18:04;100313.88;;;7.31;95.99
21520;BME280;10921;53.614;9.882;2023-12-20T10:20:31;100353.44;;;7.44;95.78
21520;BME280;10921;53.614;9.882;2023-12-20T10:22:59;100344.50;;;7.45;96.00
21520;BME280;10921;53.614;9.882;2023-12-20T10:25:26;100335.00;;;7.43;96.20
21520;BME280;10921;53.614;9.882;2023-12-20T10:28:13;100331.25;;;7.45;97.06
21520;BME280;10921;53.614;9.882;2023-12-20T10:30:41;100315.00;;;7.38;96.41
21520;BME280;10921;53.614;9.882;2023-12-20T10:33:09;100319.78;;;7.45;96.42
21520;BME280;10921;53.614;9.882;2023-12-20T10:35:37;100331.94;;;7.47;96.87
21520;BME280;10921;53.614;9.882;2023-12-20T10:38:06;100319.34;;;7.49;97.04
21520;BME280;10921;53.614;9.882;2023-12-20T10:40:35;100320.06;;;7.51;97.30
21520;BME280;10921;53.614;9.882;2023-12-20T10:43:03;100316.75;;;7.59;97.03
21520;BME280;10921;53.614;9.882;2023-12-20T10:45:31;100313.78;;;7.52;96.35
21520;BME280;10921;53.614;9.882;2023-12-20T10:47:58;100310.53;;;7.49;96.80
21520;BME280;10921;53.614;9.882;2023-12-20T10:50:27;100297.56;;;7.46;96.66
21520;BME280;10921;53.614;9.882;2023-12-20T10:52:55;100301.06;;;7.46;96.89
21520;BME280;10921;53.614;9.882;2023-12-20T10:55:23;100308.19;;;7.46;97.00
21520;BME280;10921;53.614;9.882;2023-12-20T10:58:09;100280.75;;;7.35;97.86
21520;BME280;10921;53.614;9.882;2023-12-20T11:00:40;100289.75;;;7.44;97.78
21520;BME280;10921;53.614;9.882;2023-12-20T11:03:09;100302.03;;;7.45;97.74
21520;BME280;10921;53.614;9.882;2023-12-20T11:05:52;100297.72;;;7.54;98.54
21520;BME280;10921;53.614;9.882;2023-12-20T11:08:27;100300.47;;;7.43;98.02
21520;BME280;10921;53.614;9.882;2023-12-20T11:11:01;100317.16;;;7.54;98.29
21520;BME280;10921;53.614;9.882;2023-12-20T11:13:58;100314.09;;;7.59;99.11
21520;BME280;10921;53.614;9.882;2023-12-20T11:16:26;100311.00;;;7.54;98.08
21520;BME280;10921;53.614;9.882;2023-12-20T11:19:06;100301.09;;;7.56;98.62
21520;BME280;10921;53.614;9.882;2023-12-20T11:21:33;100308.34;;;7.54;98.29
21520;BME280;10921;53.614;9.882;2023-12-20T11:24:00;100326.22;;;7.52;98.27
21520;BME280;10921;53.614;9.882;2023-12-20T11:26:28;100323.28;;;7.55;97.62
21520;BME280;10921;53.614;9.882;2023-12-20T11:29:30;100324.53;;;7.51;96.95
21520;BME280;10921;53.614;9.882;2023-12-20T11:31:59;100255.50;;;7.01;94.87
21520;BME280;10921;53.614;9.882;2023-12-20T11:34:33;100312.44;;;7.27;95.52
21520;BME280;10921;53.614;9.882;2023-12-20T11:37:02;100322.00;;;7.19;95.53
21520;BME280;10921;53.614;9.882;2023-12-20T11:39:30;100309.16;;;7.14;96.36
21520;BME280;10921;53.614;9.882;2023-12-20T11:41:57;100312.09;;;7.11;97.05
21520;BME280;10921;53.614;9.882;2023-12-20T11:44:25;100298.63;;;7.03;98.19
21520;BME280;10921;53.614;9.882;2023-12-20T11:46:52;100291.66;;;7.02;99.92
21520;BME280;10921;53.614;9.882;2023-12-20T11:49:23;100309.31;;;7.13;100.00
21520;BME280;10921;53.614;9.882;2023-12-20T11:51:50;100314.63;;;7.22;100.00
21520;BME280;10921;53.614;9.882;2023-12-20T11:54:18;100290.38;;;7.27;100.00
21520;BME280;10921;53.614;9.882;2023-12-20T11:56:44;100312.72;;;7.34;100.00
21520;BME280;10921;53.614;9.882;2023-12-20T11:59:11;100309.81;;;7.37;100.00
21520;BME280;10921;53.614;9.882;2023-12-20T12:01:49;100313.50;;;7.46;100.00
21520;BME280;10921;53.614;9.882;2023-12-20T12:04:17;100312.22;;;7.50;100.00
21520;BME280;10921;53.614;9.882;2023-12-20T12:06:44;100306.38;;;7.56;100.00
21520;BME280;10921;53.614;9.882;2023-12-20T12:09:12;100303.59;;;7.57;100.00
21520;BME280;10921;53.614;9.882;2023-12-20T12:11:38;100317.88;;;7.66;100.00
21520;BME280;10921;53.614;9.882;2023-12-20T12:14:07;100293.97;;;7.66;100.00
21520;BME280;10921;53.614;9.882;2023-12-20T12:16:34;100239.72;;;7.49;100.00
21520;BME280;10921;53.614;9.882;2023-12-20T12:19:00;100303.84;;;7.94;100.00
21520;BME280;10921;53.614;9.882;2023-12-20T12:21:27;100292.50;;;8.11;100.00
21520;BME280;10921;53.614;9.882;2023-12-20T12:24:08;100284.09;;;8.26;100.00
21520;BME280;10921;53.614;9.882;2023-12-20T12:26:35;100277.84;;;8.46;100.00
21520;BME280;10921;53.614;9.882;2023-12-20T12:29:02;100293.78;;;8.65;100.00
21520;BME280;10921;53.614;9.882;2023-12-20T12:31:28;100286.88;;;8.82;100.00
21520;BME280;10921;53.614;9.882;2023-12-20T12:33:56;100226.03;;;8.60;97.18
21520;BME280;10921;53.614;9.882;2023-12-20T12:36:23;100256.75;;;8.91;96.38
21520;BME280;10921;53.614;9.882;2023-12-20T12:38:50;100299.09;;;9.22;95.59
21520;BME280;10921;53.614;9.882;2023-12-20T12:41:17;100277.84;;;9.12;93.71
21520;BME280;10921;53.614;9.882;2023-12-20T12:43:43;100269.16;;;9.10;91.97
21520;BME280;10921;53.614;9.882;2023-12-20T12:46:10;100298.16;;;9.40;91.94
21520;BME280;10921;53.614;9.882;2023-12-20T12:48:37;100296.78;;;9.36;89.06
21520;BME280;10921;53.614;9.882;2023-12-20T12:51:07;100305.47;;;9.38;89.46
21520;BME280;10921;53.614;9.882;2023-12-20T12:53:39;100274.97;;;9.23;89.35
21520;BME280;10921;53.614;9.882;2023-12-20T12:56:06;100264.38;;;9.13;88.95
21520;BME280;10921;53.614;9.882;2023-12-20T12:58:33;100289.00;;;9.25;87.59